Time,TemperatureF,DewpointF,PressureIn,WindDirection,WindDirectionDegrees,WindSpeedMPH,WindSpeedGustMPH,Humidity,HourlyPrecipIn,Conditions,Clouds,dailyrainin,SolarRadiationWatts/m^2,SoftwareType,DateUTC
2013-09-03 00:02:00,89.0,64.0,-100.00,ENE,65,0.0,9.0,43,0.00,,,0.00,0.000000,,2013-09-03 07:02:00,
2013-09-03 00:42:00,90.0,66.0,-100.00,WSW,257,3.0,5.0,46,0.00,,,0.00,0.000000,,2013-09-03 07:42:00,
2013-09-03 00:52:00,90.0,66.0,-100.00,WSW,257,3.0,5.0,46,0.00,,,0.00,0.000000,,2013-09-03 07:52:00,
2013-09-03 01:03:00,90.0,66.0,-100.00,WSW,257,3.0,5.0,46,0.00,,,0.00,0.000000,,2013-09-03 08:03:00,
2013-09-03 01:42:00,90.0,66.0,-100.00,SW,232,5.0,5.0,46,0.00,,,0.00,0.000000,,2013-09-03 08:42:00,
2013-09-03 01:52:00,90.0,66.0,-100.00,SW,232,5.0,5.0,46,0.00,,,0.00,0.000000,,2013-09-03 08:52:00,
2013-09-03 02:01:00,90.0,66.0,-100.00,SW,232,5.0,5.0,46,0.00,,,0.00,0.000000,,2013-09-03 09:01:00,
2013-09-03 02:43:00,89.0,67.0,-100.00,SW,236,3.0,9.0,49,0.00,,,0.00,0.000000,,2013-09-03 09:43:00,
2013-09-03 02:53:00,89.0,67.0,-100.00,SW,236,3.0,9.0,49,0.00,,,0.00,0.000000,,2013-09-03 09:53:00,
2013-09-03 03:03:00,89.0,67.0,-100.00,SW,236,3.0,9.0,49,0.00,,,0.00,0.000000,,2013-09-03 10:03:00,
2013-09-03 03:42:00,86.0,63.0,-100.00,West,262,1.0,11.0,47,0.00,,,0.00,0.000000,,2013-09-03 10:42:00,
2013-09-03 03:53:00,86.0,63.0,-100.00,West,262,1.0,11.0,47,0.00,,,0.00,0.000000,,2013-09-03 10:53:00,
2013-09-03 04:02:00,86.0,63.0,-100.00,West,262,1.0,11.0,47,0.00,,,0.00,0.000000,,2013-09-03 11:02:00,
2013-09-03 04:43:00,87.0,65.0,-100.00,ENE,76,0.0,7.0,49,0.00,,,0.00,0.000000,,2013-09-03 11:43:00,
2013-09-03 04:52:00,87.0,65.0,-100.00,ENE,76,0.0,7.0,49,0.00,,,0.00,0.000000,,2013-09-03 11:52:00,
2013-09-03 05:01:00,87.0,65.0,-100.00,ENE,76,0.0,7.0,49,0.00,,,0.00,0.000000,,2013-09-03 12:01:00,
2013-09-03 05:42:00,86.0,65.0,-100.00,WSW,249,1.0,6.0,49,0.00,,,0.00,0.000000,,2013-09-03 12:42:00,
2013-09-03 05:52:00,86.0,65.0,-100.00,WSW,249,1.0,6.0,49,0.00,,,0.00,0.000000,,2013-09-03 12:52:00,
2013-09-03 06:02:00,86.0,65.0,-100.00,WSW,249,1.0,6.0,49,0.00,,,0.00,0.000000,,2013-09-03 13:02:00,
2013-09-03 06:42:00,86.0,66.0,-100.00,WNW,285,1.0,5.0,52,0.00,,,0.00,0.000000,,2013-09-03 13:42:00,
2013-09-03 06:52:00,86.0,66.0,-100.00,WNW,285,1.0,5.0,52,0.00,,,0.00,0.000000,,2013-09-03 13:52:00,
2013-09-03 07:01:00,86.0,66.0,-100.00,WNW,285,1.0,5.0,52,0.00,,,0.00,0.000000,,2013-09-03 14:01:00,
2013-09-03 07:42:00,85.0,64.0,-100.00,SSW,200,0.0,5.0,50,0.00,,,0.00,0.000000,,2013-09-03 14:42:00,
2013-09-03 07:52:00,85.0,64.0,-100.00,SSW,200,0.0,5.0,50,0.00,,,0.00,0.000000,,2013-09-03 14:52:00,
2013-09-03 08:02:00,85.0,64.0,-100.00,SSW,200,0.0,5.0,50,0.00,,,0.00,0.000000,,2013-09-03 15:02:00,
2013-09-03 08:43:00,85.0,60.0,-100.00,South,173,1.0,2.0,43,0.00,,,0.00,33.000000,,2013-09-03 15:43:00,
2013-09-03 08:54:00,85.0,60.0,-100.00,South,173,1.0,2.0,43,0.00,,,0.00,33.000000,,2013-09-03 15:54:00,
2013-09-03 09:04:00,85.0,60.0,-100.00,South,173,1.0,2.0,43,0.00,,,0.00,33.000000,,2013-09-03 16:04:00,
2013-09-03 09:43:00,90.0,59.0,-100.00,WSW,242,3.0,3.0,36,0.00,,,0.00,100.000000,,2013-09-03 16:43:00,
2013-09-03 09:54:00,90.0,59.0,-100.00,WSW,242,3.0,3.0,36,0.00,,,0.00,100.000000,,2013-09-03 16:54:00,
2013-09-03 10:03:00,90.0,59.0,-100.00,WSW,242,3.0,3.0,36,0.00,,,0.00,100.000000,,2013-09-03 17:03:00,
2013-09-03 18:53:00,108.0,52.0,-100.00,West,277,7.0,11.0,16,0.00,,,0.00,552.000000,,2013-09-04 01:53:00,
2013-09-03 19:02:00,108.0,52.0,-100.00,West,277,7.0,11.0,16,0.00,,,0.00,552.000000,,2013-09-04 02:02:00,
2013-09-03 19:43:00,106.0,55.0,-100.00,West,267,6.0,14.0,19,0.00,,,0.00,282.000000,,2013-09-04 02:43:00,
2013-09-03 19:52:00,106.0,55.0,-100.00,West,267,6.0,14.0,19,0.00,,,0.00,282.000000,,2013-09-04 02:52:00,
2013-09-03 20:02:00,106.0,55.0,-100.00,West,267,6.0,14.0,19,0.00,,,0.00,282.000000,,2013-09-04 03:02:00,
2013-09-03 20:44:00,103.0,57.0,-100.00,West,274,6.0,11.0,22,0.00,,,0.00,32.000000,,2013-09-04 03:44:00,
2013-09-03 20:54:00,103.0,57.0,-100.00,West,274,6.0,11.0,22,0.00,,,0.00,32.000000,,2013-09-04 03:54:00,
2013-09-03 21:04:00,103.0,57.0,-100.00,West,274,6.0,11.0,22,0.00,,,0.00,32.000000,,2013-09-04 04:04:00,
2013-09-03 21:44:00,102.0,61.0,-100.00,WNW,292,5.0,10.0,26,0.00,,,0.00,0.000000,,2013-09-04 04:44:00,
2013-09-03 21:54:00,102.0,61.0,-100.00,WNW,292,5.0,10.0,26,0.00,,,0.00,0.000000,,2013-09-04 04:54:00,
2013-09-03 22:03:00,102.0,61.0,-100.00,WNW,292,5.0,10.0,26,0.00,,,0.00,0.000000,,2013-09-04 05:03:00,
2013-09-03 22:43:00,99.0,59.0,-100.00,WNW,290,4.0,9.0,27,0.00,,,0.00,0.000000,,2013-09-04 05:43:00,
2013-09-03 22:53:00,99.0,59.0,-100.00,WNW,290,4.0,9.0,27,0.00,,,0.00,0.000000,,2013-09-04 05:53:00,
2013-09-03 23:02:00,99.0,59.0,-100.00,WNW,290,4.0,9.0,27,0.00,,,0.00,0.000000,,2013-09-04 06:02:00,
2013-09-03 23:42:00,96.0,59.0,-100.00,NE,40,0.0,7.0,30,0.00,,,-99.99,0.000000,,2013-09-04 06:42:00,
2013-09-03 23:52:00,96.0,59.0,-100.00,NE,40,0.0,7.0,30,0.00,,,-99.99,0.000000,,2013-09-04 06:52:00,